Time;durP1;ratioP1;P1;durP2;ratioP2;P2;SDS_P1;SDS_P2;PMS_P1;PMS_P2;Temp;Humidity;BMP_temperature;BMP_pressure;BME280_temperature;BME280_humidity;BME280_pressure;Samples;Min_cycle;Max_cycle;Signal;HPM_P1;HPM_P2
2021/06/13 00:01:48;;;;;;;10.80;4.07;;;13.70;91.50;;;;;;5046005;28;20622;-69
2021/06/13 00:04:15;;;;;;;9.20;3.92;;;13.70;91.50;;;;;;5047647;28;20098;-70
2021/06/13 00:06:41;;;;;;;12.45;4.20;;;13.70;91.50;;;;;;5046902;28;20095;-70
2021/06/13 00:09:08;;;;;;;10.57;4.20;;;13.60;91.50;;;;;;5049574;28;20076;-70
2021/06/13 00:11:35;;;;;;;9.48;3.80;;;13.70;91.50;;;;;;5046372;28;20083;-70
2021/06/13 00:14:04;;;;;;;8.15;3.92;;;13.60;91.40;;;;;;5049242;28;20464;-70
2021/06/13 00:16:30;;;;;;;;;;;13.60;91.40;;;;;;5045233;28;20110;-69
2021/06/13 00:18:57;;;;;;;8.50;4.20;;;13.50;91.30;;;;;;5048590;28;19932;-70
2021/06/13 00:21:24;;;;;;;7.93;3.60;;;13.40;91.20;;;;;;5044725;28;20065;-70
2021/06/13 00:23:51;;;;;;;9.00;4.15;;;13.40;91.40;;;;;;5048390;28;20049;-70
2021/06/13 00:26:18;;;;;;;10.48;4.63;;;13.30;91.50;;;;;;5045035;28;20076;-70
2021/06/13 00:28:45;;;;;;;9.95;4.10;;;13.30;91.60;;;;;;5047106;28;20041;-70
2021/06/13 00:31:12;;;;;;;12.82;4.32;;;13.30;91.70;;;;;;5043655;28;20737;-69
2021/06/13 00:33:38;;;;;;;9.75;4.22;;;13.30;91.70;;;;;;5045962;28;20095;-69
2021/06/13 00:36:11;;;;;;;8.48;4.03;;;13.30;91.70;;;;;;5045235;28;20463;-69
2021/06/13 00:38:38;;;;;;;8.30;4.18;;;13.30;91.60;;;;;;5043697;28;20073;-69
2021/06/13 00:41:08;;;;;;;10.20;4.43;;;13.30;91.60;;;;;;5043208;28;20076;-69
2021/06/13 00:43:35;;;;;;;7.80;4.18;;;13.30;91.60;;;;;;5048229;28;20072;-69
2021/06/13 00:46:02;;;;;;;11.32;4.53;;;13.30;91.50;;;;;;5042297;28;20095;-70
2021/06/13 00:48:29;;;;;;;8.48;4.30;;;13.20;91.50;;;;;;5060738;28;20223;-69
2021/06/13 00:50:56;;;;;;;9.13;4.38;;;13.20;91.60;;;;;;5047916;28;20109;-69
2021/06/13 00:53:22;;;;;;;8.07;3.95;;;13.10;91.60;;;;;;5046554;28;20056;-70
2021/06/13 00:55:49;;;;;;;9.27;4.00;;;13.10;91.60;;;;;;5046687;28;20084;-70
2021/06/13 00:58:16;;;;;;;9.43;4.43;;;13.00;91.60;;;;;;5046180;28;20084;-70
2021/06/13 01:01:05;;;;;;;11.07;4.70;;;13.00;91.60;;;;;;5064046;28;20056;-69
2021/06/13 01:03:32;;;;;;;10.10;3.90;;;12.90;91.60;;;;;;5044654;28;20072;-70
2021/06/13 01:05:59;;;;;;;8.45;3.80;;;12.90;91.60;;;;;;5045173;28;20045;-69
2021/06/13 01:08:57;;;;;;;7.80;4.05;;;12.90;91.60;;;;;;5049280;28;20041;-70
2021/06/13 01:11:42;;;;;;;12.02;4.35;;;12.80;91.70;;;;;;5034749;28;20424;-70
2021/06/13 01:14:25;;;;;;;8.75;4.10;;;12.80;91.70;;;;;;5050806;28;20131;-70
2021/06/13 01:17:15;;;;;;;9.68;4.53;;;12.80;91.70;;;;;;5042254;28;20410;-70
2021/06/13 01:19:46;;;;;;;8.63;4.18;;;12.70;91.80;;;;;;5051244;28;20508;-70
2021/06/13 01:22:18;;;;;;;8.40;4.15;;;12.70;91.80;;;;;;5048263;28;20041;-70
2021/06/13 01:25:04;;;;;;;9.63;4.88;;;12.70;91.90;;;;;;5044206;28;20131;-70
2021/06/13 01:28:22;;;;;;;9.38;4.70;;;12.60;91.90;;;;;;5044100;28;20131;-70
2021/06/13 01:30:52;;;;;;;8.98;4.13;;;12.60;91.90;;;;;;5027864;28;20084;-69
2021/06/13 01:33:19;;;;;;;8.52;3.67;;;12.60;91.70;;;;;;5050750;28;20124;-70
2021/06/13 01:35:46;;;;;;;8.87;4.40;;;12.50;91.60;;;;;;5050825;28;20464;-70
2021/06/13 01:38:17;;;;;;;8.35;4.00;;;12.50;91.70;;;;;;5044403;28;20868;-69
2021/06/13 01:40:44;;;;;;;9.00;4.45;;;12.40;91.70;;;;;;5040398;28;20041;-70
2021/06/13 01:43:13;;;;;;;8.90;3.97;;;12.40;91.80;;;;;;5050086;28;20140;-69
2021/06/13 01:45:43;;;;;;;7.82;3.75;;;12.40;91.80;;;;;;5050312;28;20072;-69
2021/06/13 01:48:13;;;;;;;9.98;3.97;;;12.40;91.90;;;;;;5049011;28;20139;-69
2021/06/13 01:50:41;;;;;;;9.20;4.10;;;12.40;91.80;;;;;;5049348;28;20048;-69
2021/06/13 01:53:12;;;;;;;6.80;3.53;;;12.40;91.80;;;;;;5050700;28;20488;-70
2021/06/13 01:55:40;;;;;;;8.38;3.92;;;12.40;91.70;;;;;;5050245;28;20106;-70
2021/06/13 01:58:08;;;;;;;;;;;12.40;91.70;;;;;;5049909;28;20084;-69
2021/06/13 02:00:37;;;;;;;10.40;4.13;;;12.30;91.60;;;;;;5049148;28;19971;-69
2021/06/13 02:03:04;;;;;;;9.05;3.80;;;12.30;91.80;;;;;;5047292;28;20084;-70
2021/06/13 02:05:33;;;;;;;8.50;4.00;;;12.20;91.50;;;;;;5048189;28;20389;-70
2021/06/13 02:08:00;;;;;;;11.88;4.38;;;12.20;91.60;;;;;;5050881;28;20307;-70
2021/06/13 02:10:28;;;;;;;10.25;4.30;;;12.20;91.60;;;;;;5050098;28;20045;-69
2021/06/13 02:12:56;;;;;;;9.20;4.15;;;12.10;91.50;;;;;;5049763;28;20134;-70
2021/06/13 02:15:24;;;;;;;;;;;12.10;91.60;;;;;;5050079;28;20139;-70
2021/06/13 02:17:55;;;;;;;9.35;4.47;;;12.00;91.60;;;;;;5047066;28;19978;-70
2021/06/13 02:20:25;;;;;;;10.13;4.35;;;12.10;91.60;;;;;;5049891;28;20045;-69
2021/06/13 02:22:53;;;;;;;8.23;4.07;;;12.00;91.50;;;;;;5047836;28;20068;-69
2021/06/13 02:25:22;;;;;;;7.82;3.60;;;12.00;91.50;;;;;;5048236;28;20076;-69
2021/06/13 02:28:01;;;;;;;8.80;3.58;;;12.00;91.50;;;;;;5047775;28;20124;-70
2021/06/13 02:30:36;;;;;;;;;;;11.90;91.50;;;;;;5051614;28;20455;-70
2021/06/13 02:33:07;;;;;;;6.43;3.45;;;11.90;91.50;;;;;;5045890;28;19921;-70
2021/06/13 02:35:34;;;;;;;8.73;4.07;;;11.80;91.40;;;;;;5047147;28;20077;-69
2021/06/13 02:38:02;;;;;;;6.55;3.63;;;11.80;91.60;;;;;;5041136;28;20471;-69
2021/06/13 02:40:29;;;;;;;6.90;3.50;;;11.70;91.70;;;;;;5048524;28;20381;-70
2021/06/13 02:42:56;;;;;;;7.68;3.88;;;11.70;91.70;;;;;;5044037;28;20047;-69
2021/06/13 02:45:23;;;;;;;8.82;3.90;;;11.60;91.70;;;;;;5049218;28;20436;-69
2021/06/13 02:47:51;;;;;;;10.50;3.97;;;11.60;91.70;;;;;;5048449;28;20081;-69
2021/06/13 02:50:21;;;;;;;8.18;4.57;;;11.60;91.70;;;;;;5048535;28;20106;-70
2021/06/13 02:52:52;;;;;;;8.95;4.40;;;11.60;91.80;;;;;;5045292;28;20096;-70
2021/06/13 02:55:23;;;;;;;9.57;4.07;;;11.60;91.80;;;;;;5049440;28;20076;-70
2021/06/13 02:58:01;;;;;;;5.97;3.22;;;11.60;91.90;;;;;;5048249;28;20080;-70
2021/06/13 03:00:28;;;;;;;8.13;3.70;;;11.60;91.90;;;;;;5051066;28;20460;-70
2021/06/13 03:02:58;;;;;;;7.82;4.00;;;11.50;92.10;;;;;;5061064;28;20121;-69
2021/06/13 03:05:27;;;;;;;9.65;4.35;;;11.50;91.90;;;;;;5050045;28;20044;-70
2021/06/13 03:07:55;;;;;;;7.25;3.97;;;11.40;92.00;;;;;;5048770;28;20141;-69
2021/06/13 03:10:22;;;;;;;;;;;11.30;92.10;;;;;;5050931;28;20455;-70
2021/06/13 03:12:54;;;;;;;8.20;3.42;;;11.20;92.10;;;;;;5062671;28;19963;-69
2021/06/13 03:15:22;;;;;;;7.25;3.80;;;11.20;92.10;;;;;;5048775;28;20076;-70
2021/06/13 03:17:49;;;;;;;8.73;4.03;;;11.20;92.20;;;;;;5044673;28;20148;-70
2021/06/13 03:20:17;;;;;;;8.00;3.80;;;11.20;92.20;;;;;;5046010;28;22019;-70
2021/06/13 03:22:44;;;;;;;9.18;3.85;;;11.20;92.20;;;;;;5044536;28;20542;-69
2021/06/13 03:25:11;;;;;;;9.45;4.03;;;11.20;92.20;;;;;;5047130;28;20144;-69
2021/06/13 03:27:42;;;;;;;7.57;3.75;;;11.20;92.20;;;;;;5047192;28;20080;-69
2021/06/13 03:30:10;;;;;;;8.32;4.30;;;11.20;92.30;;;;;;5048129;28;20044;-70
2021/06/13 03:32:37;;;;;;;7.88;4.10;;;11.10;92.20;;;;;;5039830;28;20132;-69
2021/06/13 03:35:07;;;;;;;9.80;3.50;;;11.10;92.20;;;;;;5042788;28;20092;-69
2021/06/13 03:37:35;;;;;;;8.23;3.72;;;11.10;92.50;;;;;;5041585;28;20132;-70
2021/06/13 03:40:04;;;;;;;8.48;4.20;;;11.10;92.20;;;;;;5056032;28;20076;-70
2021/06/13 03:42:32;;;;;;;8.07;3.70;;;11.10;92.20;;;;;;5045548;28;20368;-70
2021/06/13 03:44:59;;;;;;;10.85;4.05;;;11.10;92.30;;;;;;5044788;28;20048;-69
2021/06/13 03:47:27;;;;;;;10.18;3.75;;;11.10;92.20;;;;;;5043654;28;20098;-69
2021/06/13 03:49:54;;;;;;;10.55;4.10;;;11.20;92.30;;;;;;5048291;28;20044;-69
2021/06/13 03:52:22;;;;;;;9.30;3.70;;;11.10;92.20;;;;;;5046522;28;20095;-69
2021/06/13 03:54:49;;;;;;;6.63;3.67;;;11.20;92.60;;;;;;5047755;28;20088;-69
2021/06/13 03:57:18;;;;;;;7.63;3.67;;;11.20;92.30;;;;;;5046758;28;20156;-69
2021/06/13 03:59:48;;;;;;;7.70;3.72;;;11.20;92.30;;;;;;5048729;28;20140;-69
2021/06/13 04:02:16;;;;;;;9.07;3.90;;;11.20;92.30;;;;;;5042677;28;20131;-69
2021/06/13 04:04:47;;;;;;;8.85;3.67;;;11.20;92.40;;;;;;5047930;28;20076;-69
2021/06/13 04:07:16;;;;;;;7.55;3.80;;;11.20;92.50;;;;;;5045780;28;20114;-69
2021/06/13 04:09:45;;;;;;;9.10;3.80;;;11.20;92.60;;;;;;5046103;28;20044;-69
2021/06/13 04:12:17;;;;;;;6.43;3.53;;;11.30;92.70;;;;;;5043620;28;20076;-69
2021/06/13 04:14:45;;;;;;;9.55;4.18;;;11.30;92.70;;;;;;5040658;28;20504;-69
2021/06/13 04:17:17;;;;;;;;;;;11.30;92.70;;;;;;5046915;28;20110;-69
2021/06/13 04:19:47;;;;;;;6.65;3.30;;;11.30;92.80;;;;;;5038468;28;20026;-69
2021/06/13 04:22:17;;;;;;;8.98;3.50;;;11.40;92.80;;;;;;5040397;28;20076;-68
2021/06/13 04:24:46;;;;;;;7.80;3.92;;;11.40;92.90;;;;;;5033072;28;20402;-68
2021/06/13 04:27:17;;;;;;;8.57;3.40;;;11.50;93.00;;;;;;5032486;28;20564;-69
2021/06/13 04:29:43;;;;;;;8.18;3.75;;;11.60;93.20;;;;;;5038479;28;20417;-68
2021/06/13 04:32:10;;;;;;;6.90;4.00;;;11.70;93.30;;;;;;5039437;28;20192;-69
2021/06/13 04:34:38;;;;;;;10.25;4.40;;;11.80;93.50;;;;;;5067342;28;20122;-69
2021/06/13 04:37:07;;;;;;;8.52;4.25;;;11.80;93.60;;;;;;5039394;28;20076;-69
2021/06/13 04:39:35;;;;;;;10.95;4.43;;;11.90;93.70;;;;;;5043409;28;20067;-69
2021/06/13 04:42:03;;;;;;;9.73;4.78;;;12.00;93.90;;;;;;5040572;28;20518;-69
2021/06/13 04:44:30;;;;;;;11.30;4.70;;;12.00;94.20;;;;;;5046690;28;20067;-69
2021/06/13 04:46:57;;;;;;;8.15;4.10;;;12.00;94.10;;;;;;5046891;28;20128;-69
2021/06/13 04:49:44;;;;;;;8.48;4.43;;;12.10;94.60;;;;;;5049717;28;20052;-69
2021/06/13 04:52:17;;;;;;;10.55;4.38;;;12.20;94.50;;;;;;5046029;28;20184;-69
2021/06/13 04:54:54;;;;;;;8.13;4.00;;;12.30;94.90;;;;;;5014598;28;20057;-69
2021/06/13 04:57:41;;;;;;;9.13;4.25;;;12.40;94.80;;;;;;5011599;28;20481;-69
2021/06/13 05:00:08;;;;;;;11.00;4.20;;;12.50;94.90;;;;;;4997324;28;20058;-69
2021/06/13 05:02:38;;;;;;;10.48;4.25;;;12.60;95.10;;;;;;5033588;28;20041;-69
2021/06/13 05:05:05;;;;;;;9.10;3.92;;;12.70;95.60;;;;;;5016277;28;20083;-69
2021/06/13 05:07:32;;;;;;;10.13;3.90;;;12.70;95.40;;;;;;5027949;28;20108;-69
2021/06/13 05:09:59;;;;;;;7.47;4.13;;;12.80;95.70;;;;;;5032671;28;20445;-69
2021/06/13 05:12:26;;;;;;;8.07;4.80;;;12.90;95.80;;;;;;5026402;28;20072;-69
2021/06/13 05:14:53;;;;;;;9.52;4.68;;;13.00;95.90;;;;;;5024090;28;20046;-69
2021/06/13 05:17:20;;;;;;;10.57;5.20;;;13.10;96.10;;;;;;5030894;28;20140;-69
2021/06/13 05:19:46;;;;;;;9.02;4.70;;;13.20;96.30;;;;;;5027850;28;20098;-69
2021/06/13 05:22:13;;;;;;;15.65;5.53;;;13.20;96.50;;;;;;5021849;28;20437;-69
2021/06/13 05:24:40;;;;;;;10.77;5.45;;;13.30;96.80;;;;;;5036985;28;20475;-69
2021/06/13 05:27:07;;;;;;;12.93;5.90;;;13.40;96.90;;;;;;5024160;28;20133;-69
2021/06/13 05:29:33;;;;;;;13.07;6.10;;;13.40;97.10;;;;;;5027344;28;20111;-69
2021/06/13 05:32:00;;;;;;;10.90;6.25;;;13.50;97.30;;;;;;5009513;28;20378;-69
2021/06/13 05:34:27;;;;;;;12.52;6.13;;;13.60;97.50;;;;;;5013710;28;20116;-69
2021/06/13 05:36:54;;;;;;;15.55;6.43;;;13.70;97.70;;;;;;5019516;28;20478;-68
2021/06/13 05:39:21;;;;;;;12.55;5.47;;;13.80;97.90;;;;;;5022691;28;20518;-69
2021/06/13 05:41:47;;;;;;;9.75;5.10;;;13.90;98.00;;;;;;5024763;28;20093;-70
2021/06/13 05:44:14;;;;;;;11.27;5.28;;;14.10;98.20;;;;;;5028674;28;20139;-69
2021/06/13 05:46:41;;;;;;;15.38;5.25;;;14.20;98.30;;;;;;5010688;28;20461;-69
2021/06/13 05:49:08;;;;;;;12.23;4.93;;;14.30;98.40;;;;;;4993804;28;20069;-69
2021/06/13 05:51:34;;;;;;;12.95;5.60;;;14.40;98.50;;;;;;5005511;28;20195;-69
2021/06/13 05:54:02;;;;;;;12.80;5.13;;;14.50;98.60;;;;;;5009825;28;20095;-69
2021/06/13 05:56:28;;;;;;;11.68;5.13;;;14.70;98.70;;;;;;5029454;28;20069;-69
2021/06/13 05:58:55;;;;;;;15.07;5.65;;;14.80;98.70;;;;;;5031735;28;20044;-69
2021/06/13 06:01:22;;;;;;;11.82;5.13;;;14.90;98.80;;;;;;5031692;28;20072;-69
2021/06/13 06:03:49;;;;;;;10.45;5.00;;;15.00;98.80;;;;;;5046219;28;20058;-69
2021/06/13 06:06:15;;;;;;;11.63;5.07;;;15.10;98.90;;;;;;5030755;28;20803;-69
2021/06/13 06:08:42;;;;;;;10.98;5.13;;;15.20;99.00;;;;;;5031456;28;20140;-69
2021/06/13 06:11:09;;;;;;;10.70;4.38;;;15.30;99.10;;;;;;5033288;28;20136;-69
2021/06/13 06:13:36;;;;;;;13.00;4.10;;;15.40;99.10;;;;;;5030534;28;20089;-70
2021/06/13 06:16:03;;;;;;;11.68;4.35;;;15.50;99.20;;;;;;5024716;28;20247;-69
2021/06/13 06:18:29;;;;;;;10.50;3.85;;;15.60;99.50;;;;;;5033297;28;20520;-69
2021/06/13 06:20:56;;;;;;;11.85;4.50;;;15.70;99.40;;;;;;5030429;28;20053;-69
2021/06/13 06:23:23;;;;;;;11.30;3.65;;;15.80;99.40;;;;;;5031648;28;20143;-69
2021/06/13 06:25:50;;;;;;;9.00;3.28;;;15.90;99.40;;;;;;5029927;28;20612;-69
2021/06/13 06:28:17;;;;;;;9.77;3.30;;;16.00;99.40;;;;;;5013583;28;20132;-69
2021/06/13 06:30:44;;;;;;;11.10;3.70;;;16.10;99.40;;;;;;5034246;28;20119;-69
2021/06/13 06:33:11;;;;;;;8.38;3.13;;;16.00;99.20;;;;;;5031917;28;20132;-69
2021/06/13 06:35:37;;;;;;;10.05;3.08;;;16.10;99.20;;;;;;5028827;28;20475;-69
2021/06/13 06:38:07;;;;;;;13.27;3.10;;;16.10;99.20;;;;;;5032428;28;20456;-69
2021/06/13 06:40:34;;;;;;;9.32;3.40;;;16.10;99.10;;;;;;5013458;28;20124;-69
2021/06/13 06:43:01;;;;;;;8.13;3.33;;;16.20;99.10;;;;;;5031103;28;20050;-69
2021/06/13 06:45:28;;;;;;;9.45;3.33;;;16.20;99.10;;;;;;5031141;28;20081;-69
2021/06/13 06:47:55;;;;;;;8.80;3.08;;;16.30;99.10;;;;;;5030280;28;20049;-69
2021/06/13 06:50:22;;;;;;;9.05;2.63;;;16.30;99.10;;;;;;5032359;28;20076;-69
2021/06/13 06:52:48;;;;;;;10.25;4.00;;;16.40;99.20;;;;;;5030928;28;20077;-69
2021/06/13 06:55:17;;;;;;;8.38;3.47;;;16.50;99.10;;;;;;5032387;28;20144;-69
2021/06/13 06:57:45;;;;;;;8.68;2.97;;;16.50;99.00;;;;;;5031783;28;20052;-69
2021/06/13 07:00:14;;;;;;;8.98;3.17;;;16.50;99.00;;;;;;5029692;28;20060;-69
2021/06/13 07:02:41;;;;;;;10.05;3.85;;;16.50;99.00;;;;;;5029924;28;20069;-69
2021/06/13 07:05:09;;;;;;;9.57;3.78;;;16.50;98.90;;;;;;5030733;28;20088;-69
2021/06/13 07:07:43;;;;;;;9.45;3.10;;;16.50;98.90;;;;;;5029106;28;20053;-69
2021/06/13 07:10:11;;;;;;;8.50;3.55;;;16.50;98.90;;;;;;5011277;28;20046;-69
2021/06/13 07:12:38;;;;;;;8.73;3.42;;;16.50;98.80;;;;;;5012997;28;20139;-69
2021/06/13 07:15:06;;;;;;;11.23;3.65;;;16.50;98.80;;;;;;5029032;28;20096;-69
2021/06/13 07:17:35;;;;;;;10.68;4.05;;;16.50;98.80;;;;;;5029860;28;20060;-69
2021/06/13 07:20:06;;;;;;;16.33;4.35;;;16.50;98.80;;;;;;5031616;28;20470;-69
2021/06/13 07:22:35;;;;;;;8.88;2.92;;;16.50;98.40;;;;;;5030424;28;20441;-69
2021/06/13 07:25:05;;;;;;;7.53;2.95;;;16.50;98.10;;;;;;5045592;28;20065;-69
2021/06/13 07:27:33;;;;;;;10.30;2.80;;;16.50;97.70;;;;;;5030647;28;20045;-69
2021/06/13 07:30:00;;;;;;;9.45;3.13;;;16.50;97.80;;;;;;5015467;28;20041;-69
2021/06/13 07:32:27;;;;;;;10.27;3.28;;;16.60;97.50;;;;;;5029937;28;20110;-68
2021/06/13 07:34:53;;;;;;;7.88;3.20;;;16.60;97.40;;;;;;5030867;28;20077;-69
2021/06/13 07:37:23;;;;;;;8.73;3.30;;;16.70;97.60;;;;;;5025269;28;20057;-69
2021/06/13 07:39:50;;;;;;;7.20;2.92;;;16.70;97.60;;;;;;5032652;28;20139;-69
2021/06/13 07:42:17;;;;;;;17.77;5.15;;;16.70;97.50;;;;;;5028187;28;20603;-69
2021/06/13 07:44:44;;;;;;;9.60;3.20;;;16.80;97.60;;;;;;5029439;28;20099;-69
2021/06/13 07:47:11;;;;;;;10.00;2.95;;;16.80;97.30;;;;;;5030493;28;20072;-69
2021/06/13 07:49:38;;;;;;;7.65;3.05;;;16.90;97.40;;;;;;5031506;28;20111;-70
2021/06/13 07:52:05;;;;;;;8.27;3.00;;;16.90;97.30;;;;;;5043729;28;20564;-69
2021/06/13 07:54:32;;;;;;;7.07;3.10;;;16.90;97.20;;;;;;5032609;28;20754;-69
2021/06/13 07:56:59;;;;;;;8.07;2.60;;;17.00;97.30;;;;;;5031909;28;20132;-69
2021/06/13 07:59:25;;;;;;;9.57;3.30;;;17.00;97.20;;;;;;5031668;28;20057;-69
2021/06/13 08:01:52;;;;;;;9.88;3.28;;;17.10;96.90;;;;;;5030252;28;20560;-69
2021/06/13 08:04:19;;;;;;;7.97;3.03;;;17.00;96.60;;;;;;5031569;28;20231;-69
2021/06/13 08:06:46;;;;;;;8.93;3.03;;;17.00;96.70;;;;;;5031488;28;20147;-69
2021/06/13 08:09:13;;;;;;;7.47;3.10;;;16.90;95.40;;;;;;5031126;28;20398;-69
2021/06/13 08:11:40;;;;;;;7.63;2.97;;;16.90;96.10;;;;;;5030227;28;20509;-69
2021/06/13 08:14:07;;;;;;;10.18;2.95;;;17.00;96.50;;;;;;5029047;28;20501;-69
2021/06/13 08:16:33;;;;;;;8.20;2.70;;;17.00;96.10;;;;;;5026706;28;20428;-69
2021/06/13 08:19:00;;;;;;;7.53;2.80;;;17.00;96.10;;;;;;5028053;28;20057;-69
2021/06/13 08:21:27;;;;;;;7.32;2.65;;;17.00;96.20;;;;;;5029318;28;20080;-69
2021/06/13 08:23:54;;;;;;;7.93;2.92;;;17.00;96.00;;;;;;5029966;28;20524;-69
2021/06/13 08:26:21;;;;;;;6.07;2.83;;;17.00;95.90;;;;;;5029759;28;20485;-69
2021/06/13 08:28:47;;;;;;;7.30;2.70;;;17.10;95.50;;;;;;5030520;28;20077;-69
2021/06/13 08:31:14;;;;;;;9.23;2.90;;;17.10;95.10;;;;;;5028969;28;20139;-69
2021/06/13 08:33:41;;;;;;;8.90;2.97;;;17.20;95.40;;;;;;5026831;28;20119;-69
2021/06/13 08:36:08;;;;;;;10.07;2.92;;;17.20;95.00;;;;;;5026859;28;20251;-69
2021/06/13 08:38:35;;;;;;;7.43;2.90;;;17.20;95.50;;;;;;5027215;28;20135;-69
2021/06/13 08:41:02;;;;;;;9.85;3.05;;;17.30;95.40;;;;;;5026600;28;20262;-69
2021/06/13 08:43:32;;;;;;;10.23;3.38;;;17.30;95.50;;;;;;5029471;28;20425;-68
2021/06/13 08:46:01;;;;;;;9.02;3.85;;;17.30;95.80;;;;;;5024886;28;20647;-69
2021/06/13 08:48:29;;;;;;;8.02;3.40;;;17.40;95.30;;;;;;5030678;28;20068;-69
2021/06/13 08:50:56;;;;;;;;;;;17.40;95.10;;;;;;5028473;28;20132;-69
2021/06/13 08:53:24;;;;;;;6.57;3.15;;;17.40;94.90;;;;;;5027865;28;20018;-69
2021/06/13 08:55:51;;;;;;;7.30;2.70;;;17.40;95.30;;;;;;5027666;28;20135;-69
2021/06/13 08:58:18;;;;;;;8.68;3.28;;;17.50;95.50;;;;;;5027042;28;20141;-69
2021/06/13 09:00:46;;;;;;;7.88;3.28;;;17.60;95.60;;;;;;5027975;28;20081;-69
2021/06/13 09:03:13;;;;;;;7.00;3.33;;;17.70;95.30;;;;;;5029633;28;20505;-69
2021/06/13 09:05:41;;;;;;;8.25;2.67;;;17.80;94.50;;;;;;5029433;28;20045;-69
2021/06/13 09:08:14;;;;;;;9.38;3.25;;;17.80;95.10;;;;;;5027835;28;20132;-69
2021/06/13 09:10:50;;;;;;;8.82;3.53;;;17.80;94.90;;;;;;5028242;28;20203;-69
2021/06/13 09:13:24;;;;;;;7.75;3.20;;;17.80;94.90;;;;;;5031933;28;20471;-69
2021/06/13 09:15:58;;;;;;;8.75;4.18;;;17.90;94.40;;;;;;5027951;28;20536;-69
2021/06/13 09:18:43;;;;;;;7.75;3.25;;;17.90;95.10;;;;;;5029447;28;20184;-69
2021/06/13 09:21:25;;;;;;;8.68;3.70;;;17.90;94.60;;;;;;5029513;28;20072;-69
2021/06/13 09:23:52;;;;;;;8.30;3.40;;;17.90;94.90;;;;;;5029045;28;20087;-69
2021/06/13 09:26:23;;;;;;;6.88;3.17;;;18.00;95.10;;;;;;5027317;28;20459;-69
2021/06/13 09:28:52;;;;;;;8.90;3.08;;;18.10;95.10;;;;;;5029260;28;20141;-69
2021/06/13 09:31:24;;;;;;;7.63;2.88;;;18.20;95.00;;;;;;5027704;28;20250;-69
2021/06/13 09:33:53;;;;;;;8.73;2.90;;;18.20;95.00;;;;;;5032271;28;20112;-70
2021/06/13 09:36:23;;;;;;;5.88;2.80;;;18.30;95.20;;;;;;5031068;28;20176;-70
2021/06/13 09:39:00;;;;;;;8.32;2.88;;;18.30;94.60;;;;;;5044478;28;20049;-69
2021/06/13 09:41:28;;;;;;;6.10;2.73;;;18.40;94.80;;;;;;5033035;28;20073;-69
2021/06/13 09:44:02;;;;;;;9.93;3.13;;;18.40;94.90;;;;;;5033526;28;20041;-69
2021/06/13 09:46:32;;;;;;;9.45;3.45;;;18.40;94.80;;;;;;5031465;28;20557;-69
2021/06/13 09:49:07;;;;;;;10.05;3.90;;;18.40;94.90;;;;;;5032442;28;20139;-69
2021/06/13 09:51:38;;;;;;;8.32;3.25;;;18.50;94.60;;;;;;5031179;28;20076;-69
2021/06/13 09:54:07;;;;;;;7.65;2.83;;;18.50;94.10;;;;;;5032188;28;20105;-69
2021/06/13 09:56:41;;;;;;;6.90;3.30;;;18.50;94.40;;;;;;5032319;28;20557;-69
2021/06/13 09:59:16;;;;;;;8.20;3.47;;;18.50;94.40;;;;;;5047730;28;20084;-69
2021/06/13 10:01:57;;;;;;;8.02;3.22;;;18.60;94.80;;;;;;5031133;28;20140;-69
2021/06/13 10:04:37;;;;;;;7.38;3.22;;;18.70;94.50;;;;;;5033317;28;20073;-69
2021/06/13 10:07:18;;;;;;;10.52;3.83;;;18.70;94.00;;;;;;5034558;28;20428;-69
2021/06/13 10:09:50;;;;;;;7.63;3.08;;;18.70;94.00;;;;;;5032913;28;20520;-70
2021/06/13 10:12:19;;;;;;;7.93;2.90;;;18.70;93.50;;;;;;5014218;28;20164;-69
2021/06/13 10:14:51;;;;;;;9.63;3.42;;;18.70;93.20;;;;;;5031925;28;20838;-69
2021/06/13 10:17:29;;;;;;;8.15;2.88;;;18.80;94.10;;;;;;5034150;28;20072;-70
2021/06/13 10:19:55;;;;;;;8.82;3.00;;;18.80;94.30;;;;;;5033969;28;20085;-69
2021/06/13 10:22:23;;;;;;;7.05;3.15;;;18.90;93.80;;;;;;5030910;28;20132;-69
2021/06/13 10:24:54;;;;;;;6.70;3.13;;;19.00;94.10;;;;;;5031077;28;20057;-69
2021/06/13 10:27:21;;;;;;;6.70;2.70;;;19.00;93.50;;;;;;5043743;28;20072;-70
2021/06/13 10:29:50;;;;;;;6.30;2.80;;;19.10;94.00;;;;;;5016224;28;20045;-70
2021/06/13 10:32:21;;;;;;;9.45;3.35;;;19.20;94.00;;;;;;5029633;28;20485;-69
2021/06/13 10:34:49;;;;;;;7.68;3.13;;;19.20;93.90;;;;;;5029765;28;20116;-69
2021/06/13 10:37:17;;;;;;;6.07;2.83;;;19.30;93.80;;;;;;5045766;28;20081;-69
2021/06/13 10:39:49;;;;;;;7.57;3.20;;;19.40;94.00;;;;;;5031681;28;20483;-69
2021/06/13 10:42:19;;;;;;;7.22;3.05;;;19.40;93.80;;;;;;5014005;28;20048;-70
2021/06/13 10:44:56;;;;;;;11.55;3.83;;;19.50;93.80;;;;;;5024807;28;20049;-69
2021/06/13 10:47:28;;;;;;;9.87;3.30;;;19.40;93.10;;;;;;5027825;28;20163;-69
2021/06/13 10:50:09;;;;;;;8.95;3.22;;;19.50;93.50;;;;;;5029571;28;20469;-69
2021/06/13 10:52:36;;;;;;;11.05;3.35;;;19.50;92.80;;;;;;5043154;28;20148;-69
2021/06/13 10:55:06;;;;;;;8.02;3.05;;;19.50;92.90;;;;;;5027354;28;20073;-69
2021/06/13 10:57:46;;;;;;;5.47;2.60;;;19.50;92.50;;;;;;5029783;28;20069;-69
2021/06/13 11:00:18;;;;;;;8.35;2.78;;;19.50;92.00;;;;;;5030707;28;20129;-69
2021/06/13 11:03:00;;;;;;;6.80;2.90;;;19.60;92.90;;;;;;5011261;28;20049;-69
2021/06/13 11:05:35;;;;;;;5.88;2.80;;;19.70;93.10;;;;;;5044633;28;20132;-69
2021/06/13 11:08:02;;;;;;;8.10;2.83;;;19.70;92.80;;;;;;5029131;28;20065;-69
2021/06/13 11:10:31;;;;;;;6.75;2.65;;;19.80;92.50;;;;;;5013244;28;20135;-69
2021/06/13 11:13:09;;;;;;;6.00;2.55;;;19.80;92.30;;;;;;5029765;28;20145;-69
2021/06/13 11:15:38;;;;;;;6.72;2.60;;;19.90;91.70;;;;;;5046917;28;20112;-69
2021/06/13 11:18:26;;;;;;;5.85;2.25;;;20.00;92.10;;;;;;5042370;28;20068;-69
2021/06/13 11:21:05;;;;;;;6.43;2.60;;;20.00;92.00;;;;;;5031195;28;20837;-69
2021/06/13 11:23:32;;;;;;;5.00;2.42;;;20.10;91.90;;;;;;5012996;28;20045;-69
2021/06/13 11:26:00;;;;;;;7.38;3.53;;;20.10;92.00;;;;;;5028857;28;20075;-69
2021/06/13 11:28:46;;;;;;;5.35;2.72;;;20.10;92.00;;;;;;5032576;28;20445;-70
2021/06/13 11:31:15;;;;;;;6.18;2.38;;;20.10;91.80;;;;;;5031349;28;20445;-69
2021/06/13 11:33:44;;;;;;;5.03;2.40;;;20.20;91.50;;;;;;5030624;28;20509;-69
2021/06/13 11:36:35;;;;;;;4.97;2.47;;;20.20;91.30;;;;;;5028297;28;20055;-69
2021/06/13 11:39:02;;;;;;;5.38;2.55;;;20.30;91.50;;;;;;5027481;28;20148;-70
2021/06/13 11:41:35;;;;;;;5.25;2.55;;;20.40;91.50;;;;;;5009893;28;20086;-70
2021/06/13 11:44:04;;;;;;;9.95;2.72;;;20.40;91.30;;;;;;5011419;28;20079;-69
2021/06/13 11:46:35;;;;;;;6.35;2.28;;;20.50;91.40;;;;;;5027650;28;20131;-69
2021/06/13 11:49:05;;;;;;;6.28;2.60;;;20.50;91.00;;;;;;5013922;28;20433;-69
2021/06/13 11:51:48;;;;;;;5.15;2.13;;;20.50;91.40;;;;;;5032750;28;20451;-69
2021/06/13 11:54:36;;;;;;;5.93;2.22;;;20.50;90.10;;;;;;5026936;28;20175;-69
2021/06/13 11:57:04;;;;;;;;;;;20.60;91.10;;;;;;5029748;28;20124;-69
2021/06/13 11:59:33;;;;;;;7.82;2.65;;;20.60;83.80;;;;;;5033433;28;20027;-69
2021/06/13 12:02:01;;;;;;;6.35;2.35;;;20.60;90.60;;;;;;5013085;28;20520;-69
2021/06/13 12:04:29;;;;;;;7.10;2.90;;;20.60;90.70;;;;;;5030580;28;20390;-70
2021/06/13 12:06:58;;;;;;;10.48;2.90;;;20.70;91.00;;;;;;5029622;28;20049;-69
2021/06/13 12:09:29;;;;;;;7.88;2.90;;;20.70;90.30;;;;;;5032639;28;20132;-69
2021/06/13 12:11:58;;;;;;;8.48;2.70;;;20.70;90.70;;;;;;5030897;28;20077;-70
2021/06/13 12:14:35;;;;;;;7.82;2.10;;;20.70;90.80;;;;;;5021914;28;20097;-70
2021/06/13 12:17:14;;;;;;;6.85;2.47;;;20.80;90.70;;;;;;5012969;28;20045;-70
2021/06/13 12:19:50;;;;;;;5.80;2.17;;;20.90;91.10;;;;;;5031830;28;20048;-70
2021/06/13 12:22:26;;;;;;;6.07;2.20;;;21.00;90.80;;;;;;5042583;28;20127;-70
2021/06/13 12:27:44;;;;;;;6.93;2.97;;;21.10;89.40;;;;;;5027096;28;20140;-70
2021/06/13 12:30:18;;;;;;;7.82;3.05;;;21.10;90.50;;;;;;5033696;28;20052;-69
2021/06/13 12:33:00;;;;;;;5.72;2.70;;;21.10;90.90;;;;;;5029225;28;21054;-71
2021/06/13 12:35:30;;;;;;;6.72;2.45;;;21.10;91.00;;;;;;5032497;28;20411;-70
2021/06/13 12:38:02;;;;;;;7.15;2.70;;;21.20;91.10;;;;;;5026423;28;20076;-69
2021/06/13 12:40:31;;;;;;;5.55;2.28;;;21.20;90.90;;;;;;5010718;28;20103;-70
2021/06/13 12:42:58;;;;;;;6.88;2.47;;;21.30;91.20;;;;;;5026763;28;20122;-69
2021/06/13 12:45:25;;;;;;;7.50;2.40;;;21.40;91.40;;;;;;5028891;28;20051;-69
2021/06/13 12:47:58;;;;;;;5.90;2.53;;;21.40;91.00;;;;;;5025959;28;20501;-69
2021/06/13 12:50:30;;;;;;;6.57;2.70;;;21.50;90.20;;;;;;5030594;28;20100;-69
2021/06/13 12:53:01;;;;;;;7.30;2.60;;;21.50;90.60;;;;;;5008781;28;20049;-70
2021/06/13 12:55:40;;;;;;;7.25;2.60;;;21.60;90.90;;;;;;5027587;28;20141;-69
2021/06/13 12:58:14;;;;;;;6.10;2.40;;;21.60;88.50;;;;;;5027850;28;20133;-69
2021/06/13 13:00:42;;;;;;;6.93;2.17;;;21.70;90.40;;;;;;5012336;28;20445;-69
2021/06/13 13:03:10;;;;;;;8.70;2.63;;;21.70;90.70;;;;;;5040189;28;20064;-70
2021/06/13 13:05:38;;;;;;;;;;;21.70;90.50;;;;;;5029167;28;20160;-69